Current Weather

Gardermoen

Gardermoen, Norway (ENGM)

Report from: Tuesday, March 5, 2024 12:20 AM UTC
Current time: Tuesday, March 5, 2024 12:55 AM UTC

Nearby weather – Weather history – Daily summaries
Weather forecast

Temperature1.0°C (33.8°F)
Wind chill-1.4°C (29.6°F)
Dew point-1.0°C (30.2°F)
Winds 4 kts (2.1 m/s, 4.6 mph) North-Northeast (30°)
Visibility6.2 mi. (10 km)
Clouds Ceiling: Overcast 2,000 ft. (610 m)
Altimeter30.36 in.Hg (1028 mB)
Relative humidity86 %
Density altitude-2,122 ft. (-647 m)
Flight conditions Marginal Visual Meteorological Conditions
Raw dataENGM 050020Z 03004KT 9999 OVC020 01/M01 Q1028
An error has occurred. This application may no longer respond until reloaded. Reload 🗙